createdAt,value
2022-12-31T00:02:19.759Z,34.15
2022-12-31T00:05:25.603Z,38.53
2022-12-31T00:08:32.171Z,38.85
2022-12-31T00:11:38.929Z,35.65
2022-12-31T00:14:44.385Z,36.35
2022-12-31T00:17:50.684Z,36.83
2022-12-31T00:20:56.249Z,37.70
2022-12-31T00:24:01.206Z,38.65
2022-12-31T00:27:06.454Z,35.83
2022-12-31T00:30:13.522Z,36.98
2022-12-31T00:33:19.731Z,35.03
2022-12-31T00:36:32.018Z,35.33
2022-12-31T00:39:37.976Z,32.60
2022-12-31T00:42:44.683Z,37.95
2022-12-31T00:45:51.970Z,34.67
2022-12-31T00:48:58.359Z,35.40
2022-12-31T00:52:03.498Z,36.80
2022-12-31T00:55:09.102Z,37.20
2022-12-31T00:58:16.033Z,39.23
2022-12-31T01:01:42.050Z,37.28
2022-12-31T01:04:48.509Z,38.25
2022-12-31T01:07:55.163Z,36.85
2022-12-31T01:11:23.388Z,35.10
2022-12-31T01:14:32.489Z,36.50
2022-12-31T01:17:37.952Z,37.23
2022-12-31T01:20:38.574Z,38.10
2022-12-31T01:23:45.493Z,36.53
2022-12-31T01:26:51.207Z,39.90
2022-12-31T01:29:57.190Z,37.17
2022-12-31T01:33:03.322Z,42.23
2022-12-31T01:36:08.807Z,41.60
2022-12-31T01:39:15.716Z,42.93
2022-12-31T01:42:21.015Z,41.18
2022-12-31T01:45:27.059Z,41.40
2022-12-31T01:48:39.087Z,38.73
2022-12-31T01:51:46.118Z,39.53
2022-12-31T01:54:55.981Z,43.87
2022-12-31T01:58:05.294Z,39.08
2022-12-31T02:01:11.747Z,47.45
2022-12-31T02:04:22.718Z,42.33
2022-12-31T02:07:28.900Z,41.02
2022-12-31T02:10:35.975Z,45.80
2022-12-31T02:13:43.709Z,43.92
2022-12-31T02:17:45.502Z,41.02
2022-12-31T02:21:36.422Z,40.80
2022-12-31T02:25:02.608Z,40.03
2022-12-31T02:28:28.437Z,44.55
2022-12-31T02:31:39.249Z,41.05
2022-12-31T02:35:08.414Z,41.20
2022-12-31T02:38:27.949Z,39.80
2022-12-31T02:41:52.280Z,39.42
2022-12-31T02:44:57.890Z,43.78
2022-12-31T02:48:39.812Z,42.23
2022-12-31T02:52:06.566Z,41.40
2022-12-31T02:55:24.058Z,42.67
2022-12-31T02:59:01.497Z,44.23
2022-12-31T03:02:22.305Z,44.45
2022-12-31T03:05:29.808Z,42.85
2022-12-31T03:08:41.331Z,44.18
2022-12-31T03:12:04.024Z,42.10
2022-12-31T03:15:11.915Z,42.78
2022-12-31T03:18:31.546Z,44.42
2022-12-31T03:21:54.928Z,39.10
2022-12-31T03:25:19.401Z,40.65
2022-12-31T03:28:28.835Z,41.53
2022-12-31T03:31:34.293Z,42.43
2022-12-31T03:34:39.095Z,40.55
2022-12-31T03:37:46.873Z,88.90
2022-12-31T03:41:01.407Z,47.88
2022-12-31T03:44:08.233Z,40.75
2022-12-31T03:47:13.630Z,43.42
2022-12-31T03:50:14.404Z,44.60
2022-12-31T03:53:20.092Z,47.08
2022-12-31T03:56:25.936Z,47.43
2022-12-31T03:59:31.862Z,44.93
2022-12-31T04:02:39.465Z,46.98
2022-12-31T04:05:45.977Z,49.18
2022-12-31T04:08:52.699Z,45.65
2022-12-31T04:12:01.521Z,50.40
2022-12-31T04:15:07.527Z,53.08
2022-12-31T04:18:14.187Z,50.88
2022-12-31T04:21:20.297Z,48.25
2022-12-31T04:24:26.024Z,51.88
2022-12-31T04:27:31.746Z,52.67
2022-12-31T04:30:38.275Z,59.10
2022-12-31T04:33:44.203Z,55.85
2022-12-31T04:36:49.924Z,61.60
2022-12-31T04:40:00.424Z,63.92
2022-12-31T04:43:05.622Z,59.13
2022-12-31T04:46:12.156Z,54.75
2022-12-31T04:49:17.269Z,56.18
2022-12-31T04:52:23.342Z,62.35
2022-12-31T04:55:29.687Z,65.40
2022-12-31T04:58:35.146Z,62.08
2022-12-31T05:01:44.417Z,66.00
2022-12-31T05:04:51.286Z,67.97
2022-12-31T05:07:56.842Z,61.45
2022-12-31T05:11:03.724Z,57.35
2022-12-31T05:14:10.143Z,54.70
2022-12-31T05:17:17.605Z,57.23
2022-12-31T05:20:24.689Z,75.72
2022-12-31T05:23:33.817Z,69.65
2022-12-31T05:26:39.803Z,58.30
2022-12-31T05:29:46.353Z,54.80
2022-12-31T05:32:52.211Z,60.90
2022-12-31T05:35:59.576Z,56.70
2022-12-31T05:39:04.440Z,44.00
2022-12-31T05:42:10.902Z,54.33
2022-12-31T05:45:19.331Z,47.43
2022-12-31T05:48:24.309Z,56.35
2022-12-31T05:51:30.755Z,47.58
2022-12-31T05:54:37.321Z,43.90
2022-12-31T05:57:43.792Z,48.08
2022-12-31T06:00:50.600Z,35.15
2022-12-31T06:03:56.293Z,36.85
2022-12-31T06:07:03.082Z,42.50
2022-12-31T06:10:09.333Z,39.30
2022-12-31T06:13:14.534Z,40.38
2022-12-31T06:16:23.491Z,34.13
2022-12-31T06:19:30.725Z,33.00
2022-12-31T06:22:36.843Z,43.40
2022-12-31T06:25:44.196Z,36.88
2022-12-31T06:28:49.878Z,37.13
2022-12-31T06:31:58.294Z,36.00
2022-12-31T06:35:05.828Z,38.02
2022-12-31T06:38:11.216Z,41.00
2022-12-31T06:41:21.950Z,35.78
2022-12-31T06:44:28.847Z,38.70
2022-12-31T06:47:35.003Z,34.60
2022-12-31T06:50:42.039Z,29.10
2022-12-31T06:53:47.198Z,30.60
2022-12-31T06:56:54.427Z,31.42
2022-12-31T07:00:00.235Z,37.67
2022-12-31T07:03:30.954Z,54.42
2022-12-31T07:06:47.461Z,38.85
2022-12-31T07:10:16.700Z,38.53
2022-12-31T07:13:39.061Z,32.80
2022-12-31T07:17:11.244Z,36.03
2022-12-31T07:20:31.860Z,34.85
2022-12-31T07:23:38.060Z,33.92
2022-12-31T07:27:22.156Z,36.50
2022-12-31T07:30:40.217Z,34.63
2022-12-31T07:34:07.031Z,31.62
2022-12-31T07:37:26.356Z,28.25
2022-12-31T07:41:00.576Z,34.00
2022-12-31T07:44:22.338Z,34.13
2022-12-31T07:47:36.264Z,38.55
2022-12-31T07:50:43.516Z,34.10
2022-12-31T07:53:48.540Z,33.83
2022-12-31T07:56:53.883Z,29.42
2022-12-31T08:00:23.143Z,31.52
2022-12-31T08:03:37.229Z,29.52
2022-12-31T08:10:29.726Z,26.62
2022-12-31T08:13:36.161Z,31.15
2022-12-31T08:16:46.681Z,30.17
2022-12-31T08:19:54.985Z,28.98
2022-12-31T08:23:26.205Z,33.23
2022-12-31T08:26:36.636Z,29.85
2022-12-31T08:29:58.033Z,29.18
2022-12-31T08:33:28.100Z,31.55
2022-12-31T08:37:02.297Z,29.80
2022-12-31T08:40:40.632Z,40.03
2022-12-31T08:44:06.761Z,35.92
2022-12-31T08:47:38.281Z,32.98
2022-12-31T08:50:42.696Z,37.70
2022-12-31T08:53:50.591Z,34.55
2022-12-31T08:57:30.470Z,35.00
2022-12-31T09:00:38.626Z,28.38
2022-12-31T09:04:27.310Z,31.82
2022-12-31T09:07:32.087Z,34.43
2022-12-31T09:10:51.958Z,30.75
2022-12-31T09:14:13.628Z,28.35
2022-12-31T09:17:59.148Z,34.50
2022-12-31T09:21:06.083Z,31.20
2022-12-31T09:24:11.908Z,32.53
2022-12-31T09:27:44.637Z,31.55
2022-12-31T09:31:18.391Z,34.63
2022-12-31T09:34:30.543Z,37.58
2022-12-31T09:38:06.537Z,32.17
2022-12-31T09:41:31.014Z,36.53
2022-12-31T09:44:56.881Z,39.35
2022-12-31T09:48:26.937Z,33.40
2022-12-31T09:51:46.413Z,36.83
2022-12-31T09:55:19.965Z,65.28
2022-12-31T09:58:53.738Z,46.40
2022-12-31T10:02:42.041Z,36.98
2022-12-31T10:06:22.060Z,33.95
2022-12-31T10:09:41.413Z,33.33
2022-12-31T10:13:34.465Z,30.17
2022-12-31T10:17:11.536Z,31.70
2022-12-31T10:20:45.129Z,44.60
2022-12-31T10:24:37.378Z,39.18
2022-12-31T10:28:20.818Z,35.35
2022-12-31T10:32:01.079Z,29.67
2022-12-31T10:35:37.983Z,31.02
2022-12-31T10:39:07.435Z,28.60
2022-12-31T10:42:24.565Z,29.77
2022-12-31T10:45:54.838Z,35.88
2022-12-31T10:49:26.235Z,26.55
2022-12-31T10:52:42.189Z,30.50
2022-12-31T10:56:14.243Z,27.77
2022-12-31T10:59:45.653Z,36.00
2022-12-31T11:02:59.072Z,32.25
2022-12-31T11:06:43.888Z,28.00
2022-12-31T11:10:25.755Z,27.82
2022-12-31T11:14:21.382Z,32.15
2022-12-31T11:17:50.469Z,23.83
2022-12-31T11:21:34.266Z,29.42
2022-12-31T11:25:18.533Z,29.52
2022-12-31T11:28:52.461Z,25.65
2022-12-31T11:32:09.893Z,28.73
2022-12-31T11:35:39.277Z,32.78
2022-12-31T11:38:55.046Z,22.02
2022-12-31T11:42:08.553Z,26.97
2022-12-31T11:46:00.676Z,30.48
2022-12-31T11:49:51.539Z,31.05
2022-12-31T11:53:24.435Z,31.23
2022-12-31T11:56:35.190Z,34.98
2022-12-31T11:59:43.716Z,32.85
2022-12-31T12:02:52.488Z,39.75
2022-12-31T12:05:58.720Z,27.73
2022-12-31T12:09:04.125Z,26.65
2022-12-31T12:12:16.201Z,24.98
2022-12-31T12:15:24.974Z,32.48
2022-12-31T12:18:47.854Z,28.67
2022-12-31T12:22:00.680Z,24.98
2022-12-31T12:25:20.540Z,32.40
2022-12-31T12:28:38.401Z,31.37
2022-12-31T12:31:43.089Z,27.07
2022-12-31T12:34:53.588Z,29.82
2022-12-31T12:38:01.734Z,31.48
2022-12-31T12:41:16.811Z,34.63
2022-12-31T12:44:25.166Z,31.15
2022-12-31T12:47:31.744Z,39.98
2022-12-31T12:50:40.254Z,35.48
2022-12-31T12:54:00.572Z,31.73
2022-12-31T12:57:23.670Z,29.63
2022-12-31T13:01:08.129Z,33.15
2022-12-31T13:04:41.494Z,37.85
2022-12-31T13:08:09.145Z,44.05
2022-12-31T13:11:22.892Z,46.68
2022-12-31T13:14:48.273Z,33.50
2022-12-31T13:18:20.175Z,38.98
2022-12-31T13:21:57.370Z,30.60
2022-12-31T13:25:21.809Z,29.35
2022-12-31T13:28:30.370Z,33.33
2022-12-31T13:31:44.713Z,35.63
2022-12-31T13:34:56.393Z,33.55
2022-12-31T13:38:05.589Z,42.90
2022-12-31T13:41:37.328Z,43.00
2022-12-31T13:45:02.739Z,34.95
2022-12-31T13:48:15.452Z,39.15
2022-12-31T13:51:31.730Z,39.60
2022-12-31T13:55:08.039Z,40.80
2022-12-31T13:58:24.065Z,42.40
2022-12-31T14:01:41.366Z,44.90
2022-12-31T14:04:53.432Z,52.38
2022-12-31T14:08:09.278Z,53.30
2022-12-31T14:11:45.100Z,32.88
2022-12-31T14:15:02.015Z,53.87
2022-12-31T14:18:43.274Z,66.00
2022-12-31T14:22:08.708Z,40.75
2022-12-31T14:25:13.587Z,58.13
2022-12-31T14:28:20.813Z,49.30
2022-12-31T14:31:34.458Z,63.87
2022-12-31T14:34:59.466Z,38.98
2022-12-31T14:38:16.035Z,44.27
2022-12-31T14:42:02.127Z,47.88
2022-12-31T14:45:47.832Z,50.70
2022-12-31T14:49:32.068Z,40.73
2022-12-31T14:52:41.475Z,34.80
2022-12-31T14:55:53.030Z,35.63
2022-12-31T14:59:02.035Z,52.62
2022-12-31T15:02:08.781Z,43.45
2022-12-31T15:05:28.761Z,35.20
2022-12-31T15:09:08.925Z,43.48
2022-12-31T15:12:25.513Z,47.38
2022-12-31T15:16:00.617Z,49.58
2022-12-31T15:19:11.991Z,47.23
2022-12-31T15:22:56.813Z,37.98
2022-12-31T15:26:06.433Z,33.13
2022-12-31T15:29:24.226Z,39.35
2022-12-31T15:32:39.351Z,45.70
2022-12-31T15:35:46.998Z,45.92
2022-12-31T15:38:53.777Z,42.80
2022-12-31T15:45:17.639Z,36.15
2022-12-31T15:51:37.617Z,35.35
2022-12-31T15:55:01.057Z,46.90
2022-12-31T15:58:09.861Z,44.77
2022-12-31T16:01:37.362Z,54.08
2022-12-31T16:04:47.462Z,54.50
2022-12-31T16:07:54.085Z,40.20
2022-12-31T16:11:01.569Z,40.00
2022-12-31T16:14:08.615Z,45.48
2022-12-31T16:17:14.737Z,50.03
2022-12-31T16:20:39.510Z,69.00
2022-12-31T16:23:45.574Z,37.65
2022-12-31T16:27:02.049Z,48.90
2022-12-31T16:30:21.996Z,44.25
2022-12-31T16:33:29.194Z,67.30
2022-12-31T16:36:37.994Z,59.05
2022-12-31T16:39:48.524Z,51.42
2022-12-31T16:42:56.150Z,36.20
2022-12-31T16:46:01.901Z,48.48
2022-12-31T16:49:14.332Z,52.65
2022-12-31T16:52:23.162Z,55.50
2022-12-31T16:55:34.017Z,53.17
2022-12-31T16:58:48.910Z,42.35
2022-12-31T17:01:56.399Z,44.42
2022-12-31T17:05:07.779Z,49.08
2022-12-31T17:08:12.719Z,54.77
2022-12-31T17:11:23.198Z,45.88
2022-12-31T17:14:29.839Z,58.17
2022-12-31T17:17:40.198Z,37.23
2022-12-31T17:20:47.176Z,54.13
2022-12-31T17:23:53.682Z,49.60
2022-12-31T17:27:00.013Z,49.75
2022-12-31T17:30:06.908Z,47.03
2022-12-31T17:33:25.859Z,48.05
2022-12-31T17:36:42.141Z,42.98
2022-12-31T17:40:49.408Z,51.33
2022-12-31T17:43:16.119Z,46.58
2022-12-31T17:46:28.989Z,58.02
2022-12-31T17:49:34.941Z,43.00
2022-12-31T17:52:40.613Z,41.77
2022-12-31T17:55:49.071Z,43.80
2022-12-31T17:58:59.493Z,39.42
2022-12-31T18:02:06.303Z,39.50
2022-12-31T18:05:13.635Z,46.30
2022-12-31T18:08:19.961Z,45.73
2022-12-31T18:11:32.619Z,42.85
2022-12-31T18:14:39.811Z,36.20
2022-12-31T18:17:44.987Z,40.48
2022-12-31T18:20:51.417Z,45.00
2022-12-31T18:27:03.912Z,39.85
2022-12-31T18:30:13.317Z,37.85
2022-12-31T18:33:18.168Z,33.20
2022-12-31T18:36:30.993Z,52.58
2022-12-31T18:39:38.745Z,48.87
2022-12-31T18:42:45.266Z,56.30
2022-12-31T18:45:53.791Z,40.33
2022-12-31T18:49:00.178Z,38.88
2022-12-31T18:52:05.975Z,44.30
2022-12-31T18:55:13.907Z,50.23
2022-12-31T18:58:19.379Z,40.20
2022-12-31T19:01:49.349Z,51.35
2022-12-31T19:04:58.436Z,50.83
2022-12-31T19:08:05.715Z,42.00
2022-12-31T19:11:13.087Z,40.10
2022-12-31T19:14:22.136Z,42.48
2022-12-31T19:17:30.424Z,45.85
2022-12-31T19:20:35.672Z,39.25
2022-12-31T19:23:43.062Z,42.23
2022-12-31T19:26:51.832Z,44.63
2022-12-31T19:29:58.511Z,43.30
2022-12-31T19:33:06.259Z,43.60
2022-12-31T19:36:14.227Z,42.23
2022-12-31T19:39:20.578Z,45.28
2022-12-31T19:42:29.020Z,43.38
2022-12-31T19:45:39.560Z,43.13
2022-12-31T19:48:46.863Z,41.25
2022-12-31T19:51:54.064Z,39.67
2022-12-31T19:55:00.759Z,37.67
2022-12-31T19:58:08.707Z,40.40
2022-12-31T20:01:16.205Z,37.83
2022-12-31T20:04:23.238Z,36.88
2022-12-31T20:07:28.845Z,35.58
2022-12-31T20:10:35.073Z,39.88
2022-12-31T20:13:41.573Z,39.85
2022-12-31T20:16:47.518Z,38.28
2022-12-31T20:19:56.257Z,40.88
2022-12-31T20:23:02.477Z,40.52
2022-12-31T20:26:14.704Z,41.50
2022-12-31T20:29:21.060Z,42.35
2022-12-31T20:32:26.284Z,45.38
2022-12-31T20:35:31.025Z,41.70
2022-12-31T20:38:36.077Z,41.45
2022-12-31T20:41:42.235Z,43.02
2022-12-31T20:44:49.189Z,42.45
2022-12-31T20:47:56.462Z,41.50
2022-12-31T20:51:11.684Z,42.67
2022-12-31T20:54:21.055Z,42.70
2022-12-31T20:57:31.691Z,43.73
2022-12-31T21:00:34.295Z,42.73
2022-12-31T21:06:50.871Z,41.08
2022-12-31T21:09:57.785Z,40.08
2022-12-31T21:13:04.305Z,41.75
2022-12-31T21:16:11.383Z,39.80
2022-12-31T21:19:16.573Z,44.18
2022-12-31T21:22:22.653Z,44.03
2022-12-31T21:25:29.302Z,41.02
2022-12-31T21:28:33.673Z,43.80
2022-12-31T21:31:41.031Z,42.95
2022-12-31T21:35:06.413Z,43.90
2022-12-31T21:38:00.835Z,42.27
2022-12-31T21:41:05.170Z,47.53
2022-12-31T21:44:11.408Z,53.38
2022-12-31T21:47:39.781Z,60.43
2022-12-31T21:50:45.387Z,54.85
2022-12-31T21:53:51.996Z,53.10
2022-12-31T21:56:57.190Z,55.78
2022-12-31T22:00:44.464Z,49.13
2022-12-31T22:03:38.243Z,46.30
2022-12-31T22:06:46.663Z,44.77
2022-12-31T22:09:52.168Z,42.60
2022-12-31T22:12:59.453Z,44.00
2022-12-31T22:16:09.795Z,45.65
2022-12-31T22:19:15.465Z,40.83
2022-12-31T22:22:22.979Z,43.98
2022-12-31T22:25:30.672Z,39.18
2022-12-31T22:28:39.467Z,40.05
2022-12-31T22:31:46.826Z,50.92
2022-12-31T22:34:53.636Z,49.77
2022-12-31T22:38:09.835Z,52.73
2022-12-31T22:41:25.843Z,47.55
2022-12-31T22:44:32.024Z,47.48
2022-12-31T22:47:38.898Z,45.90
2022-12-31T22:50:47.778Z,45.73
2022-12-31T22:53:54.861Z,49.00
2022-12-31T22:57:02.672Z,43.30
2022-12-31T23:00:08.659Z,40.98
2022-12-31T23:03:15.034Z,43.50
2022-12-31T23:06:20.938Z,40.95
2022-12-31T23:09:46.828Z,43.28
2022-12-31T23:12:51.946Z,41.25
2022-12-31T23:16:18.265Z,54.77
2022-12-31T23:19:43.085Z,46.68
2022-12-31T23:23:09.019Z,48.78
2022-12-31T23:26:18.306Z,48.23
2022-12-31T23:29:24.327Z,45.25
2022-12-31T23:32:31.371Z,42.60
2022-12-31T23:35:37.513Z,46.50
2022-12-31T23:38:42.921Z,46.18
2022-12-31T23:41:48.466Z,43.52
2022-12-31T23:44:53.819Z,44.18
2022-12-31T23:48:00.697Z,46.05
2022-12-31T23:51:07.730Z,47.62
2022-12-31T23:54:13.632Z,46.33
2022-12-31T23:57:19.406Z,42.93
